Time;durP1;ratioP1;P1;durP2;ratioP2;P2;SDS_P1;SDS_P2;PMS_P1;PMS_P2;Temp;Humidity;BMP_temperature;BMP_pressure;BME280_temperature;BME280_humidity;BME280_pressure;Samples;Min_cycle;Max_cycle;Signal;HPM_P1;HPM_P2
2022/06/04 00:01:57;;;;;;;38.60;29.00;;;;;;;15.24;83.78;97769.81;109625;1251;59700;-71
2022/06/04 00:04:28;;;;;;;41.30;31.10;;;;;;;15.26;82.50;97766.20;109799;1250;59705;-71
2022/06/04 00:06:58;;;;;;;48.20;33.20;;;;;;;15.26;80.62;97761.40;109738;1251;71493;-70
2022/06/04 00:09:28;;;;;;;55.60;41.10;;;;;;;15.26;80.22;97762.98;109701;1253;68649;-69
2022/06/04 00:17:37;;;;;;;65.00;47.80;;;;;;;15.10;83.15;97770.05;109685;1251;59674;-70
2022/06/04 00:20:12;;;;;;;54.50;40.40;;;;;;;15.03;83.59;97772.23;109601;1251;70838;-70
2022/06/04 00:22:44;;;;;;;57.40;41.30;;;;;;;14.97;83.20;97770.98;109557;1253;67799;-72
2022/06/04 00:25:16;;;;;;;42.00;32.10;;;;;;;14.91;83.11;97774.29;109712;1251;69381;-73
2022/06/04 00:27:48;;;;;;;41.70;30.80;;;;;;;14.86;85.22;97777.32;109855;1251;59705;-71
2022/06/04 00:30:18;;;;;;;68.50;48.70;;;;;;;14.86;85.69;97775.27;109636;1251;59677;-71
2022/06/04 00:32:50;;;;;;;76.40;56.70;;;;;;;14.86;85.69;97775.02;109659;1251;70733;-71
2022/06/04 00:35:22;;;;;;;75.10;53.20;;;;;;;14.87;86.13;97773.91;109569;1253;67833;-71
2022/06/04 00:37:52;;;;;;;76.70;56.00;;;;;;;14.88;85.92;97774.39;110269;1253;69291;-72
2022/06/04 00:40:33;;;;;;;85.60;60.60;;;;;;;14.90;85.76;97775.11;109920;1251;59695;-72
2022/06/04 00:43:03;;;;;;;101.00;71.90;;;;;;;14.92;85.86;97770.17;109741;1251;59610;-70
2022/06/04 00:45:34;;;;;;;98.50;74.00;;;;;;;14.93;85.55;97770.22;109781;1251;71964;-71
2022/06/04 00:48:08;;;;;;;95.70;69.50;;;;;;;14.95;85.96;97771.66;109770;1251;67718;-69
2022/06/04 00:50:40;;;;;;;90.80;64.30;;;;;;;14.97;84.88;97774.30;109763;1253;69395;-72
2022/06/04 00:53:11;;;;;;;88.70;63.30;;;;;;;14.98;84.18;97772.46;109701;1251;59704;-70
2022/06/04 00:55:43;;;;;;;83.90;61.10;;;;;;;15.00;85.12;97777.01;109789;1251;59716;-70
2022/06/04 00:58:28;;;;;;;78.70;57.80;;;;;;;15.01;84.36;97775.52;109760;1251;71562;-68
2022/06/04 01:01:30;;;;;;;88.60;64.90;;;;;;;15.02;85.49;97776.31;109886;1251;68396;-70
2022/06/04 01:04:47;;;;;;;72.10;51.70;;;;;;;15.02;84.93;97774.21;109238;1260;69389;-69
2022/06/04 01:07:25;;;;;;;48.90;35.90;;;;;;;15.00;83.63;97768.22;109298;1260;59816;-70
2022/06/04 01:10:22;;;;;;;47.80;31.30;;;;;;;14.96;82.63;97768.72;109328;1260;59805;-70
2022/06/04 01:13:11;;;;;;;40.30;27.00;;;;;;;14.93;83.41;97765.52;109292;1259;71770;-70
2022/06/04 01:15:48;;;;;;;43.20;32.00;;;;;;;14.88;83.92;97759.08;109291;1259;68413;-70
2022/06/04 01:18:29;;;;;;;37.50;27.70;;;;;;;14.82;82.57;97755.05;109254;1260;68686;-71
2022/06/04 01:21:03;;;;;;;35.20;25.90;;;;;;;14.77;82.40;97756.63;109076;1259;60896;-72
2022/06/04 01:23:35;;;;;;;40.50;30.80;;;;;;;14.74;82.33;97756.00;109547;1260;59680;-72
2022/06/04 01:26:23;;;;;;;52.90;40.50;;;;;;;14.71;84.02;97753.85;109345;1259;70579;-70
2022/06/04 01:29:04;;;;;;;60.30;44.20;;;;;;;14.69;83.20;97749.64;109101;1260;68924;-72
2022/06/04 01:31:46;;;;;;;65.20;44.90;;;;;;;14.67;83.25;97752.55;109248;1259;69424;-71
2022/06/04 01:34:24;;;;;;;51.20;36.00;;;;;;;14.66;81.92;97746.56;109179;1260;59770;-70
2022/06/04 01:37:03;;;;;;;55.80;41.00;;;;;;;14.63;81.72;97746.81;109018;1260;59695;-71
2022/06/04 01:42:31;;;;;;;44.30;32.90;;;;;;;14.61;85.39;97739.27;109806;1253;67803;-71
2022/06/04 01:45:07;;;;;;;51.30;35.10;;;;;;;14.59;85.09;97735.60;109823;1251;69196;-72
2022/06/04 01:47:38;;;;;;;39.90;29.30;;;;;;;14.57;85.87;97734.19;109766;1251;59813;-69
2022/06/04 01:50:14;;;;;;;30.00;22.60;;;;;;;14.57;86.16;97729.83;109645;1251;59792;-70
2022/06/04 01:52:48;;;;;;;27.60;20.90;;;;;;;14.56;85.88;97727.08;109609;1253;70794;-69
2022/06/04 01:55:28;;;;;;;34.90;25.10;;;;;;;14.54;86.89;97727.90;109656;1251;67901;-73
2022/06/04 01:58:04;;;;;;;40.60;30.60;;;;;;;14.54;87.12;97734.09;109686;1251;68287;-70
2022/06/04 02:00:53;;;;;;;52.70;39.60;;;;;;;14.51;87.39;97733.21;109754;1251;60081;-69
2022/06/04 02:03:33;;;;;;;74.10;52.90;;;;;;;14.50;87.72;97729.77;109774;1251;59734;-71
2022/06/04 02:06:11;;;;;;;63.50;47.30;;;;;;;14.49;85.43;97728.14;109740;1251;70843;-72
2022/06/04 02:08:53;;;;;;;50.90;38.20;;;;;;;14.50;84.03;97729.98;109617;1251;68450;-73
2022/06/04 02:11:25;;;;;;;70.80;48.20;;;;;;;14.49;83.93;97734.95;110303;1251;69494;-70
2022/06/04 02:14:05;;;;;;;67.20;46.70;;;;;;;14.48;83.74;97735.09;109766;1251;60091;-70
2022/06/04 02:16:43;;;;;;;68.70;48.20;;;;;;;14.47;84.35;97738.64;109711;1251;59718;-70
2022/06/04 02:19:13;;;;;;;63.30;41.60;;;;;;;14.46;85.63;97736.80;109718;1251;69772;-69
2022/06/04 02:21:43;;;;;;;80.30;51.70;;;;;;;14.44;84.87;97738.56;109804;1251;67693;-70
2022/06/04 02:24:16;;;;;;;85.20;53.80;;;;;;;14.43;83.85;97741.44;109585;1251;68422;-70
2022/06/04 02:26:46;;;;;;;;;;;;;;;14.41;85.13;97742.29;109595;1251;59802;-71
2022/06/04 02:29:16;;;;;;;;;;;;;;;14.37;86.67;97741.95;109600;1251;59740;-70
2022/06/04 02:31:49;;;;;;;;;;;;;;;14.32;86.67;97739.54;109612;1251;71734;-69
2022/06/04 02:34:50;;;;;;;93.00;55.10;;;;;;;14.29;88.29;97740.15;109620;1251;68586;-71
2022/06/04 02:37:34;;;;;;;53.50;33.60;;;;;;;14.27;87.67;97742.03;109796;1251;69410;-70
2022/06/04 02:40:14;;;;;;;35.30;24.10;;;;;;;14.27;84.43;97744.14;109734;1250;61146;-71
2022/06/04 02:42:44;;;;;;;;;;;;;;;14.29;84.03;97740.70;109876;1251;59708;-70
2022/06/04 02:45:59;;;;;;;34.60;24.30;;;;;;;14.30;83.76;97739.73;109936;1251;71352;-71
2022/06/04 02:48:40;;;;;;;30.80;20.60;;;;;;;14.33;83.98;97743.88;109769;1251;68624;-70
2022/06/04 02:51:20;;;;;;;42.10;26.00;;;;;;;14.35;87.30;97752.06;109903;1251;69425;-69
2022/06/04 02:53:52;;;;;;;36.40;25.20;;;;;;;14.36;87.70;97755.39;109918;1251;59678;-72
2022/06/04 02:56:30;;;;;;;37.60;26.80;;;;;;;14.40;87.23;97758.21;110239;1251;59695;-68
2022/06/04 02:59:07;;;;;;;50.90;34.50;;;;;;;14.45;88.27;97760.91;110063;1250;69763;-69
2022/06/04 03:01:41;;;;;;;60.50;38.10;;;;;;;14.49;88.53;97760.45;109917;1251;67795;-71
2022/06/04 03:04:11;;;;;;;58.50;35.70;;;;;;;14.52;88.31;97754.39;109909;1251;67684;-70
2022/06/04 03:06:41;;;;;;;61.70;41.00;;;;;;;14.56;88.09;97750.76;109803;1251;59704;-71
2022/06/04 03:09:15;;;;;;;61.20;39.40;;;;;;;14.60;87.82;97751.09;109766;1251;59684;-70
2022/06/04 03:11:47;;;;;;;56.30;37.70;;;;;;;14.65;87.90;97755.44;109749;1251;71534;-71
2022/06/04 03:14:18;;;;;;;73.20;47.30;;;;;;;14.69;87.08;97759.07;109673;1251;68452;-70
2022/06/04 03:16:49;;;;;;;142.00;91.70;;;;;;;14.74;87.02;97761.80;109752;1251;68518;-70
2022/06/04 03:19:18;;;;;;;;;;;;;;;14.77;84.82;97763.96;109785;1250;59694;-70
2022/06/04 03:21:48;;;;;;;;;;;;;;;14.79;84.19;97768.28;109783;1250;59800;-69
2022/06/04 03:24:18;;;;;;;50.80;32.00;;;;;;;14.77;83.90;97771.55;109734;1251;71151;-70
2022/06/04 03:26:49;;;;;;;61.80;40.40;;;;;;;14.78;85.49;97772.74;109656;1251;67707;-70
2022/06/04 03:29:21;;;;;;;52.70;36.30;;;;;;;14.79;86.75;97774.76;109977;1251;68920;-70
2022/06/04 03:31:52;;;;;;;57.50;36.30;;;;;;;14.83;86.41;97773.20;109961;1251;59776;-70
2022/06/04 03:34:22;;;;;;;46.20;29.30;;;;;;;14.87;86.74;97769.52;109917;1251;59699;-70
2022/06/04 03:36:52;;;;;;;40.80;28.50;;;;;;;14.92;84.45;97772.28;109779;1251;70817;-72
2022/06/04 03:39:21;;;;;;;41.20;27.80;;;;;;;14.98;84.10;97774.20;109764;1251;67737;-69
2022/06/04 03:41:51;;;;;;;46.30;31.60;;;;;;;15.05;84.63;97769.23;109622;1251;69358;-70
2022/06/04 03:44:21;;;;;;;38.80;27.50;;;;;;;15.11;86.63;97766.40;110198;1251;59763;-71
2022/06/04 03:46:52;;;;;;;34.10;22.60;;;;;;;15.19;86.09;97768.33;109871;1251;59698;-71
2022/06/04 03:49:22;;;;;;;24.90;19.20;;;;;;;15.27;86.64;97764.45;109759;1251;70872;-70
2022/06/04 03:51:53;;;;;;;21.10;15.70;;;;;;;15.38;86.32;97767.10;109959;1251;68575;-71
2022/06/04 03:54:52;;;;;;;;;;;;;;;15.49;85.48;97769.27;109717;1251;69346;-69
2022/06/04 04:00:00;;;;;;;26.50;20.40;;;;;;;15.76;84.61;97766.77;109868;1251;59760;-71
2022/06/04 04:02:29;;;;;;;25.00;19.00;;;;;;;15.91;84.63;97763.02;109736;1251;71802;-69
2022/06/04 04:05:00;;;;;;;22.90;18.30;;;;;;;16.04;84.73;97763.91;109888;1251;67664;-69
2022/06/04 04:07:29;;;;;;;19.20;15.40;;;;;;;16.19;84.12;97771.55;109821;1251;68478;-69
2022/06/04 04:09:59;;;;;;;21.80;17.00;;;;;;;16.34;83.25;97769.70;109536;1251;59741;-70
2022/06/04 04:12:29;;;;;;;21.30;16.80;;;;;;;16.49;82.74;97766.50;109822;1251;59732;-70
2022/06/04 04:14:58;;;;;;;19.80;14.80;;;;;;;16.67;81.87;97757.38;109880;1251;71007;-69
2022/06/04 04:17:27;;;;;;;18.90;13.20;;;;;;;16.83;81.54;97755.38;109836;1251;68206;-71
2022/06/04 04:19:57;;;;;;;22.70;16.90;;;;;;;17.00;81.22;97752.14;109831;1251;69476;-70
2022/06/04 04:22:26;;;;;;;;;;;;;;;17.16;81.17;97754.66;109748;1251;59777;-71
2022/06/04 04:24:56;;;;;;;25.30;17.90;;;;;;;17.30;81.11;97750.79;109926;1250;59793;-71
2022/06/04 04:27:25;;;;;;;22.10;16.40;;;;;;;17.43;80.34;97749.55;109886;1250;70173;-68
2022/06/04 04:29:54;;;;;;;20.90;15.00;;;;;;;17.58;79.81;97744.09;110204;1251;68737;-67
2022/06/04 04:32:26;;;;;;;18.50;14.50;;;;;;;17.69;78.95;97740.65;109714;1251;68698;-69
2022/06/04 04:34:55;;;;;;;14.80;11.50;;;;;;;17.84;78.94;97741.54;109946;1250;59754;-69
2022/06/04 04:37:25;;;;;;;20.90;15.90;;;;;;;17.92;78.12;97739.35;109642;1250;59724;-69
2022/06/04 04:39:55;;;;;;;20.50;17.20;;;;;;;17.94;78.01;97738.98;109528;1253;71600;-70
2022/06/04 04:42:24;;;;;;;21.00;17.30;;;;;;;17.88;77.81;97736.92;109955;1251;67813;-69
2022/06/04 04:44:54;;;;;;;18.30;14.90;;;;;;;17.81;77.90;97739.30;109539;1251;69339;-69
2022/06/04 04:47:24;;;;;;;18.90;15.00;;;;;;;17.81;78.12;97735.50;109674;1250;59766;-71
2022/06/04 04:49:54;;;;;;;20.80;15.00;;;;;;;17.84;78.42;97731.92;109927;1251;59716;-70
2022/06/04 04:52:23;;;;;;;19.30;15.00;;;;;;;17.88;78.49;97730.77;109749;1251;71442;-71
2022/06/04 04:54:53;;;;;;;19.70;15.20;;;;;;;17.95;78.26;97735.31;109946;1250;68682;-71
2022/06/04 04:57:23;;;;;;;20.70;16.70;;;;;;;18.05;78.12;97732.79;109781;1251;69480;-70
2022/06/04 04:59:52;;;;;;;22.60;16.00;;;;;;;18.08;78.23;97730.55;109902;1251;59725;-70
2022/06/04 05:02:21;;;;;;;22.60;15.90;;;;;;;18.12;78.52;97722.77;109875;1250;59688;-70
2022/06/04 05:04:50;;;;;;;18.10;15.30;;;;;;;18.19;78.74;97723.44;109688;1250;71529;-70
2022/06/04 05:07:20;;;;;;;19.10;15.00;;;;;;;18.31;79.00;97717.67;109753;1248;68429;-70
2022/06/04 05:09:50;;;;;;;18.70;14.70;;;;;;;18.59;77.83;97716.25;109445;1253;68945;-69
2022/06/04 05:12:19;;;;;;;13.00;10.90;;;;;;;19.05;77.64;97713.33;109676;1251;59679;-68
2022/06/04 05:14:49;;;;;;;12.20;9.70;;;;;;;19.65;75.50;97720.83;109958;1250;59706;-70
2022/06/04 05:17:19;;;;;;;10.10;8.10;;;;;;;20.21;72.48;97720.12;110201;1250;70785;-70
2022/06/04 05:19:53;;;;;;;9.90;8.10;;;;;;;20.77;71.47;97712.86;109612;1251;68799;-69
2022/06/04 05:22:22;;;;;;;8.00;7.10;;;;;;;21.26;68.36;97713.39;109534;1253;69747;-68
2022/06/04 05:24:51;;;;;;;8.50;6.60;;;;;;;21.72;68.55;97713.08;109646;1250;60080;-70
2022/06/04 05:27:20;;;;;;;8.90;7.70;;;;;;;22.09;65.38;97716.27;109920;1250;59709;-70
2022/06/04 05:29:49;;;;;;;8.40;6.80;;;;;;;22.32;64.26;97721.11;109769;1251;71065;-67
2022/06/04 05:32:18;;;;;;;6.90;6.20;;;;;;;22.50;63.20;97713.67;109694;1251;68579;-70
2022/06/04 05:34:48;;;;;;;7.10;6.40;;;;;;;22.67;62.69;97709.89;109531;1251;69542;-70
2022/06/04 05:37:17;;;;;;;;;;;;;;;22.76;61.54;97707.00;109659;1251;59703;-69
2022/06/04 05:39:46;;;;;;;;;;;;;;;22.80;60.54;97703.83;109617;1251;59683;-70
2022/06/04 05:42:15;;;;;;;6.90;5.60;;;;;;;22.93;60.61;97704.70;109789;1251;71723;-69
2022/06/04 05:44:44;;;;;;;6.30;5.70;;;;;;;23.02;59.39;97701.81;109833;1250;67783;-71
2022/06/04 05:47:13;;;;;;;7.40;6.50;;;;;;;22.95;57.99;97702.86;109862;1250;69536;-71
2022/06/04 05:49:43;;;;;;;7.20;6.40;;;;;;;22.89;58.06;97699.34;109869;1250;59729;-72
2022/06/04 05:52:13;;;;;;;;;;;;;;;22.89;59.16;97697.83;109917;1250;59767;-70
2022/06/04 05:54:42;;;;;;;6.10;5.50;;;;;;;22.90;58.80;97699.76;109866;1250;70791;-69
2022/06/04 05:57:11;;;;;;;6.70;6.10;;;;;;;22.85;57.86;97704.56;109519;1251;68634;-69
2022/06/04 05:59:40;;;;;;;6.20;5.60;;;;;;;22.75;58.36;97711.73;109759;1250;69469;-70
2022/06/04 06:02:11;;;;;;;5.90;5.30;;;;;;;22.74;58.89;97707.33;110300;1251;59752;-70
2022/06/04 06:04:40;;;;;;;6.00;5.10;;;;;;;22.80;58.34;97703.34;109778;1251;59704;-69
2022/06/04 06:07:09;;;;;;;;;;;;;;;22.80;56.35;97703.47;109760;1253;71482;-69
2022/06/04 06:09:38;;;;;;;6.30;5.70;;;;;;;22.86;56.94;97705.24;109878;1250;68488;-70
2022/06/04 06:12:08;;;;;;;6.50;5.60;;;;;;;22.94;57.32;97704.80;109695;1251;69527;-71
2022/06/04 06:14:37;;;;;;;7.50;5.40;;;;;;;23.15;57.10;97704.45;109858;1250;59781;-67
2022/06/04 06:17:06;;;;;;;8.20;5.50;;;;;;;23.48;57.21;97705.25;109760;1249;59702;-71
2022/06/04 06:19:35;;;;;;;6.60;5.70;;;;;;;23.86;54.79;97711.61;109914;1250;71555;-68
2022/06/04 06:22:04;;;;;;;6.60;5.70;;;;;;;24.18;53.76;97709.84;109886;1250;67063;-69
2022/06/04 06:24:33;;;;;;;6.40;5.70;;;;;;;24.40;52.84;97713.17;109813;1250;69304;-72
2022/06/04 06:27:02;;;;;;;7.50;6.10;;;;;;;24.54;51.94;97713.70;109290;1251;605199;-67
2022/06/04 06:29:32;;;;;;;6.70;6.10;;;;;;;24.71;50.79;97703.65;109598;1251;59647;-68
2022/06/04 06:32:01;;;;;;;5.80;5.00;;;;;;;24.90;51.07;97705.02;109592;1251;70796;-68
2022/06/04 06:34:30;;;;;;;;;;;;;;;25.06;50.30;97701.34;109646;1250;67776;-69
2022/06/04 06:36:59;;;;;;;6.40;5.80;;;;;;;25.02;50.09;97699.88;109780;1251;68457;-70
2022/06/04 06:39:29;;;;;;;6.80;6.10;;;;;;;25.05;49.89;97697.44;109890;1251;59657;-68
2022/06/04 06:41:59;;;;;;;7.00;5.90;;;;;;;25.25;49.82;97698.19;109660;1250;59745;-69
2022/06/04 06:44:38;;;;;;;7.50;5.80;;;;;;;25.57;50.17;97695.54;109689;1250;69803;-72
2022/06/04 06:47:08;;;;;;;6.00;5.40;;;;;;;25.86;49.50;97690.36;110456;1250;67813;-65
2022/06/04 06:49:38;;;;;;;7.40;5.60;;;;;;;26.13;48.39;97687.98;109774;1250;68649;-65
2022/06/04 06:52:13;;;;;;;8.00;5.90;;;;;;;26.14;47.16;97682.75;109606;1251;59705;-65
2022/06/04 06:54:43;;;;;;;5.70;5.20;;;;;;;26.33;47.97;97681.86;109716;1250;59644;-66
2022/06/04 06:57:17;;;;;;;6.50;5.80;;;;;;;26.58;46.62;97680.55;109807;1250;71602;-67
2022/06/04 06:59:47;;;;;;;6.10;5.40;;;;;;;26.61;46.38;97678.94;109700;1250;68636;-66
2022/06/04 07:02:16;;;;;;;6.20;5.30;;;;;;;26.71;46.38;97676.02;109846;1250;69479;-68
2022/06/04 07:04:45;;;;;;;6.20;5.30;;;;;;;26.98;45.66;97679.56;109879;1250;59755;-70
2022/06/04 07:07:14;;;;;;;5.50;5.00;;;;;;;27.22;44.38;97674.53;109685;1250;59745;-69
2022/06/04 07:09:44;;;;;;;6.40;5.80;;;;;;;27.32;43.62;97676.90;109918;1250;71206;-70
2022/06/04 07:12:13;;;;;;;5.90;5.10;;;;;;;27.37;43.41;97679.83;109923;1250;67772;-69
2022/06/04 07:14:41;;;;;;;;;;;;;;;27.52;43.54;97680.62;109907;1250;69539;-70
2022/06/04 07:17:11;;;;;;;;;;;;;;;27.43;43.74;97679.88;109789;1250;59723;-72
2022/06/04 07:19:40;;;;;;;;;;;;;;;27.58;42.90;97682.50;109800;1253;59750;-70
2022/06/04 07:22:10;;;;;;;6.30;5.70;;;;;;;27.56;42.91;97679.86;109836;1250;70930;-72
2022/06/04 07:24:40;;;;;;;5.90;5.20;;;;;;;27.63;42.83;97678.30;109870;1251;67887;-72
2022/06/04 07:27:11;;;;;;;5.60;5.00;;;;;;;27.71;42.97;97671.83;109878;1250;69425;-72
2022/06/04 07:29:40;;;;;;;5.60;5.10;;;;;;;28.06;43.08;97667.15;109948;1250;59702;-70
2022/06/04 07:32:10;;;;;;;6.30;5.30;;;;;;;28.43;42.72;97661.52;110377;1250;59761;-71
2022/06/04 07:34:41;;;;;;;6.10;5.50;;;;;;;28.81;41.37;97659.34;109824;1250;70677;-72
2022/06/04 07:37:12;;;;;;;5.80;5.30;;;;;;;28.99;41.06;97657.02;109855;1250;67830;-74
2022/06/04 07:39:40;;;;;;;5.50;5.00;;;;;;;29.11;41.06;97653.71;109654;1250;69578;-69
2022/06/04 07:42:09;;;;;;;6.00;5.40;;;;;;;29.31;41.02;97656.94;109788;1250;59755;-71
2022/06/04 07:44:38;;;;;;;6.60;5.00;;;;;;;29.36;40.09;97651.48;109762;1250;59785;-68
2022/06/04 07:47:07;;;;;;;8.20;5.50;;;;;;;29.47;39.38;97649.98;109867;1250;72281;-72
2022/06/04 07:49:36;;;;;;;;;;;;;;;29.60;39.75;97648.06;109851;1250;69316;-73
2022/06/04 07:52:05;;;;;;;6.50;5.90;;;;;;;29.70;40.11;97648.55;109868;1250;69508;-74
2022/06/04 07:54:35;;;;;;;;;;;;;;;29.71;39.52;97645.40;109630;1250;59738;-75
2022/06/04 07:57:04;;;;;;;6.30;5.10;;;;;;;29.45;39.58;97641.94;109821;1250;59694;-74
2022/06/04 07:59:33;;;;;;;6.00;4.80;;;;;;;29.47;40.37;97642.65;109714;1251;69961;-73
2022/06/04 08:02:02;;;;;;;;;;;;;;;29.69;40.28;97643.13;109830;1249;67632;-71
2022/06/04 08:04:31;;;;;;;6.20;5.50;;;;;;;30.03;40.24;97642.37;109811;1250;68679;-72
2022/06/04 08:07:01;;;;;;;;;;;;;;;30.39;39.43;97643.33;109916;1250;59709;-73
2022/06/04 08:09:31;;;;;;;5.80;5.30;;;;;;;30.36;39.17;97644.23;109883;1250;59767;-71
2022/06/04 08:12:00;;;;;;;6.20;5.60;;;;;;;30.24;38.75;97641.09;109922;1250;72288;-72
2022/06/04 08:14:29;;;;;;;7.80;6.00;;;;;;;30.17;38.81;97639.94;110132;1251;68636;-70
2022/06/04 08:17:02;;;;;;;6.60;5.80;;;;;;;30.10;38.77;97638.71;110043;1250;68772;-71
2022/06/04 08:19:32;;;;;;;6.90;6.30;;;;;;;30.03;38.78;97638.24;109700;1252;59674;-70
2022/06/04 08:22:02;;;;;;;6.70;5.30;;;;;;;29.98;38.57;97633.73;109854;1250;59745;-70
2022/06/04 08:24:30;;;;;;;;;;;;;;;29.85;39.16;97629.70;109708;1251;71820;-73
2022/06/04 08:27:00;;;;;;;;;;;;;;;29.96;39.10;97629.61;109800;1251;68792;-74
2022/06/04 08:29:31;;;;;;;7.10;6.40;;;;;;;29.85;39.68;97627.90;109586;1251;69428;-73
2022/06/04 08:32:02;;;;;;;6.90;6.30;;;;;;;29.76;39.49;97625.27;109602;1250;59745;-73
2022/06/04 08:34:32;;;;;;;6.50;5.80;;;;;;;29.56;39.33;97624.98;109913;1250;59635;-73
2022/06/04 08:37:02;;;;;;;8.90;7.30;;;;;;;29.34;39.57;97624.34;109708;1251;71615;-69
2022/06/04 08:39:31;;;;;;;7.30;6.60;;;;;;;28.99;40.24;97626.39;109899;1250;67721;-69
2022/06/04 08:42:05;;;;;;;6.90;6.20;;;;;;;28.70;40.43;97630.77;109794;1250;68655;-74
2022/06/04 08:44:41;;;;;;;5.90;5.30;;;;;;;28.72;40.73;97629.48;109820;1250;59681;-74
2022/06/04 08:47:35;;;;;;;6.70;6.00;;;;;;;28.91;40.27;97626.26;109907;1250;59705;-74
2022/06/04 08:50:21;;;;;;;8.00;6.40;;;;;;;28.96;40.39;97624.80;109614;1251;72250;-73
2022/06/04 08:52:59;;;;;;;7.30;6.70;;;;;;;28.96;40.49;97624.02;109863;1250;68720;-72
2022/06/04 08:58:56;;;;;;;6.80;6.20;;;;;;;29.08;40.39;97620.05;109976;1250;59770;-74
2022/06/04 09:01:36;;;;;;;6.40;5.40;;;;;;;29.42;40.40;97617.78;110062;1250;59695;-74
2022/06/04 09:04:25;;;;;;;5.70;5.20;;;;;;;29.91;39.93;97611.58;109727;1251;70862;-73
2022/06/04 09:07:26;;;;;;;6.40;5.60;;;;;;;30.49;39.26;97606.35;109630;1253;67720;-73
2022/06/04 09:10:10;;;;;;;6.60;6.00;;;;;;;30.97;38.35;97603.35;109869;1250;69757;-73
2022/06/04 09:12:54;;;;;;;8.50;7.70;;;;;;;31.50;37.89;97604.66;109706;1253;59731;-73
2022/06/04 09:15:38;;;;;;;8.40;7.60;;;;;;;31.84;35.08;97603.33;109856;1250;59680;-72
2022/06/04 09:18:27;;;;;;;8.00;7.30;;;;;;;32.44;35.19;97593.33;109720;1251;70770;-72
2022/06/04 09:21:01;;;;;;;9.60;8.80;;;;;;;32.47;33.99;97584.11;110084;1250;67832;-70
2022/06/04 09:23:37;;;;;;;7.20;6.50;;;;;;;32.20;34.37;97594.39;109611;1250;68498;-72
2022/06/04 09:26:13;;;;;;;6.70;6.00;;;;;;;31.65;34.90;97593.58;109824;1250;59755;-74
2022/06/04 09:28:54;;;;;;;5.40;4.70;;;;;;;31.66;35.39;97592.84;109810;1250;60081;-73
2022/06/04 09:32:00;;;;;;;6.60;5.90;;;;;;;31.15;36.17;97584.35;109878;1250;72223;-72
2022/06/04 09:34:36;;;;;;;8.30;7.40;;;;;;;31.07;36.02;97583.77;109733;1251;68592;-74
2022/06/04 09:37:07;;;;;;;31.70;26.10;;;;;;;30.79;35.87;97580.39;109812;1250;69236;-72
2022/06/04 09:39:42;;;;;;;18.50;16.60;;;;;;;30.29;37.20;97583.99;109688;1250;59604;-71
2022/06/04 09:42:13;;;;;;;43.70;38.20;;;;;;;29.88;37.46;97583.27;109787;1251;59751;-70
2022/06/04 09:44:56;;;;;;;10.10;8.10;;;;;;;29.11;38.61;97579.80;110508;1250;70993;-72
2022/06/04 09:47:40;;;;;;;12.20;11.00;;;;;;;29.02;38.18;97577.94;109885;1250;67673;-70
2022/06/04 09:50:17;;;;;;;9.50;8.60;;;;;;;29.05;39.47;97576.33;109813;1250;70927;-69
2022/06/04 09:52:56;;;;;;;33.30;29.60;;;;;;;29.13;39.48;97574.66;109838;1250;60145;-70
2022/06/04 09:55:27;;;;;;;17.30;15.50;;;;;;;29.16;40.34;97573.98;109739;1250;59762;-70
2022/06/04 09:58:00;;;;;;;11.60;10.50;;;;;;;29.40;40.52;97574.77;109865;1250;71608;-70
2022/06/04 10:00:38;;;;;;;11.80;10.70;;;;;;;29.15;40.30;97574.66;109708;1251;68685;-71
2022/06/04 10:03:17;;;;;;;22.50;20.20;;;;;;;28.57;41.48;97568.88;109960;1250;68699;-69
2022/06/04 10:05:58;;;;;;;;;;;;;;;28.48;42.70;97569.52;109997;1250;59771;-69
2022/06/04 10:08:29;;;;;;;;;;;;;;;28.37;42.66;97570.42;109849;1250;59738;-70
2022/06/04 10:11:00;;;;;;;;;;;;;;;28.20;42.22;97570.05;109877;1250;71426;-71
2022/06/04 10:13:42;;;;;;;;;;;;;;;28.13;42.48;97567.80;109689;1252;69040;-70
2022/06/04 10:16:14;;;;;;;;;;;;;;;28.06;43.02;97565.30;109778;1250;69427;-73
2022/06/04 10:18:59;;;;;;;;;;;;;;;28.07;43.27;97563.52;109872;1250;59635;-71
2022/06/04 10:21:32;;;;;;;;;;;;;;;28.06;43.13;97560.84;109856;1250;59777;-70
2022/06/04 10:24:01;;;;;;;;;;;;;;;28.02;42.87;97565.13;109955;1250;71981;-70
2022/06/04 10:26:48;;;;;;;;;;;;;;;27.85;42.85;97561.33;109986;1250;68737;-72
2022/06/04 10:29:17;;;;;;;;;;;;;;;27.75;43.17;97561.59;110289;1250;68904;-71
2022/06/04 10:31:48;;;;;;;;;;;;;;;27.72;43.05;97557.48;109953;1250;59747;-70
2022/06/04 10:34:17;;;;;;;;;;;;;;;27.93;43.23;97548.09;109802;1250;59770;-72
2022/06/04 10:37:04;;;;;;;;;;;;;;;28.28;42.78;97548.98;109947;1250;70153;-71
2022/06/04 10:40:00;;;;;;;;;;;;;;;28.67;42.47;97543.59;109936;1250;68036;-69
2022/06/04 10:42:47;;;;;;;;;;;;;;;28.83;42.67;97540.66;109649;1250;69486;-71
2022/06/04 10:45:21;;;;;;;;;;;;;;;29.18;41.70;97536.63;109907;1250;59716;-69
2022/06/04 10:47:55;;;;;;;;;;;;;;;29.02;41.45;97532.90;109931;1250;59640;-71
2022/06/04 10:53:37;;;;;;;;;;;;;;;29.20;41.30;97530.17;109934;1250;70132;-72
2022/06/04 10:56:13;;;;;;;;;;;;;;;29.30;40.66;97522.25;109864;1250;68626;-71
2022/06/04 10:58:55;;;;;;;;;;;;;;;29.57;40.71;97518.66;109925;1250;59768;-71
2022/06/04 11:01:31;;;;;;;;;;;;;;;29.81;41.27;97514.77;109955;1250;59753;-71
2022/06/04 11:04:21;;;;;;;;;;;;;;;30.06;39.47;97511.81;109940;1250;71557;-70
2022/06/04 11:07:16;;;;;;;;;;;;;;;30.09;39.47;97512.17;109920;1248;68671;-72
2022/06/04 11:09:45;;;;;;;;;;;;;;;29.87;39.78;97511.80;109587;1250;69466;-72
2022/06/04 11:12:23;;;;;;;;;;;;;;;29.80;40.37;97515.13;109704;1250;59777;-71
2022/06/04 11:14:55;;;;;;;;;;;;;;;29.75;39.75;97511.89;110432;1251;59682;-72
2022/06/04 11:17:26;;;;;;;;;;;;;;;29.75;40.00;97510.52;109893;1250;70573;-73
2022/06/04 11:20:04;;;;;;;;;;;;;;;29.85;40.14;97514.83;109738;1250;68500;-72
2022/06/04 11:22:36;;;;;;;;;;;;;;;29.84;39.68;97513.60;109670;1251;69548;-71
2022/06/04 11:25:18;;;;;;;;;;;;;;;29.51;40.52;97511.81;109983;1250;59778;-72
2022/06/04 11:27:49;;;;;;;;;;;;;;;29.13;41.10;97512.58;109961;1250;59742;-72
2022/06/04 11:30:24;;;;;;;;;;;;;;;28.64;42.88;97507.90;109986;1250;70793;-71
2022/06/04 11:33:08;;;;;;;;;;;;;;;28.36;43.72;97506.19;109714;1250;67903;-71
2022/06/04 11:35:55;;;;;;;;;;;;;;;28.10;43.99;97505.85;109934;1250;68725;-72
2022/06/04 11:38:30;;;;;;;;;;;;;;;28.11;43.48;97506.73;109861;1250;59695;-71
2022/06/04 11:41:05;;;;;;;;;;;;;;;28.01;44.30;97507.48;109746;1251;59742;-71
2022/06/04 11:43:46;;;;;;;;;;;;;;;27.86;45.16;97509.34;109844;1250;70810;-70
2022/06/04 11:46:24;;;;;;;;;;;;;;;27.40;45.54;97512.60;109937;1250;67959;-72
2022/06/04 11:49:01;;;;;;;;;;;;;;;27.07;46.11;97507.61;109882;1250;67750;-70
2022/06/04 11:51:52;;;;;;;;;;;;;;;27.04;46.71;97504.89;109777;1251;59722;-73
2022/06/04 11:54:43;;;;;;;;;;;;;;;27.10;45.32;97498.36;109964;1250;59704;-72
2022/06/04 11:57:12;;;;;;;;;;;;;;;26.98;46.55;97495.44;109730;1251;71591;-72
2022/06/04 11:59:40;;;;;;;;;;;;;;;26.89;46.03;97487.71;109891;1250;68543;-73
2022/06/04 12:02:16;;;;;;;;;;;;;;;26.99;45.09;97487.08;110391;1250;69600;-72
2022/06/04 12:05:02;;;;;;;;;;;;;;;27.19;44.82;97485.53;109844;1250;59777;-73
2022/06/04 12:07:39;;;;;;;;;;;;;;;27.34;45.35;97480.36;109956;1250;59770;-73
2022/06/04 12:10:14;;;;;;;;;;;;;;;27.63;44.78;97480.23;109813;1250;71588;-72
2022/06/04 12:12:48;;;;;;;;;;;;;;;27.70;44.52;97474.61;109810;1252;68662;-73
2022/06/04 12:15:17;;;;;;;;;;;;;;;27.55;44.33;97471.09;109880;1250;68668;-71
2022/06/04 12:17:49;;;;;;;;;;;;;;;27.60;44.63;97469.64;109657;1251;59766;-69
2022/06/04 12:26:30;;;;;;;;;;;;;;;27.94;44.26;97465.54;109868;1250;68077;-70
2022/06/04 12:28:59;;;;;;;;;;;;;;;28.02;43.62;97464.18;109522;1253;70782;-72
2022/06/04 12:31:29;;;;;;;;;;;;;;;28.18;43.05;97461.75;109781;1250;59706;-72
2022/06/04 12:33:58;;;;;;;;;;;;;;;28.29;43.76;97460.38;109833;1250;59705;-71